Inocencia, Brazil
Current Conditions -  °F | °C
As of 6:00 AM on Sunday 26 Oct 2014 (Local Time) from SBDN Reporting Station
Haze Haze  
Wind Chill: 68°   Ceiling: 1700
Heat Index: 68°   Visibility: 3mi
Dew Point: 66°   Wind: 6mph
Humidity: 94%   Direction: 70°ENE
Pressure: 29.91"   Gusts: NA
Location:  19.73°S, 51.89°W
Report Text: SBDN 260900Z 07005KT 5000 BR SCT007 BKN017 20/19 Q1013
Loading
Personal Weather Stations






























Interactive Weather Map
Tropical Storm Tracking
New forecast layout! Learn more

10-Day Weather Forecast

Advertisements
Track Severe Weather on mobile